createdAt,value
2023-01-10T00:00:37.580Z,2.63
2023-01-10T00:01:38.982Z,3.27
2023-01-10T00:02:40.281Z,1.87
2023-01-10T00:03:41.634Z,1.40
2023-01-10T00:04:43.098Z,1.83
2023-01-10T00:05:44.495Z,2.37
2023-01-10T00:06:45.855Z,1.47
2023-01-10T00:07:47.324Z,1.93
2023-01-10T00:08:48.944Z,1.97
2023-01-10T00:09:50.312Z,1.20
2023-01-10T00:10:51.627Z,1.37
2023-01-10T00:12:11.697Z,2.10
2023-01-10T00:13:26.457Z,1.47
2023-01-10T00:14:29.235Z,1.60
2023-01-10T00:15:33.882Z,2.47
2023-01-10T00:16:37.059Z,1.37
2023-01-10T00:17:38.477Z,2.60
2023-01-10T00:18:39.784Z,1.07
2023-01-10T00:19:41.226Z,4.13
2023-01-10T00:20:44.653Z,2.00
2023-01-10T00:21:46.032Z,1.73
2023-01-10T00:22:49.322Z,1.87
2023-01-10T00:23:50.627Z,1.57
2023-01-10T00:24:52.215Z,1.80
2023-01-10T00:25:53.618Z,2.67
2023-01-10T00:26:55.020Z,1.70
2023-01-10T00:28:20.005Z,1.70
2023-01-10T00:29:23.251Z,2.40
2023-01-10T00:30:24.613Z,2.73
2023-01-10T00:31:25.977Z,1.50
2023-01-10T00:32:27.335Z,1.97
2023-01-10T00:33:31.816Z,1.47
2023-01-10T00:34:34.797Z,1.57
2023-01-10T00:35:36.233Z,3.40
2023-01-10T00:36:37.607Z,2.50
2023-01-10T00:37:39.817Z,1.27
2023-01-10T00:38:41.175Z,1.43
2023-01-10T00:39:42.505Z,2.03
2023-01-10T00:40:44.324Z,0.97
2023-01-10T00:42:04.572Z,2.57
2023-01-10T00:43:24.396Z,1.33
2023-01-10T00:44:26.099Z,1.17
2023-01-10T00:45:27.557Z,2.43
2023-01-10T00:46:29.167Z,1.87
2023-01-10T00:47:30.481Z,2.30
2023-01-10T00:48:31.944Z,1.63
2023-01-10T00:49:33.285Z,2.23
2023-01-10T00:50:34.689Z,1.67
2023-01-10T00:51:36.116Z,1.00
2023-01-10T00:52:37.499Z,1.80
2023-01-10T00:53:38.830Z,1.30
2023-01-10T00:54:40.133Z,1.03
2023-01-10T00:55:41.590Z,2.83
2023-01-10T00:56:42.981Z,1.83
2023-01-10T00:57:44.296Z,2.30
2023-01-10T00:58:45.637Z,2.83
2023-01-10T00:59:47.125Z,1.67
2023-01-10T01:00:52.101Z,1.70
2023-01-10T01:01:53.586Z,2.57
2023-01-10T01:02:55.627Z,2.60
2023-01-10T01:03:57.713Z,1.27
2023-01-10T01:04:59.070Z,1.90
2023-01-10T01:06:03.833Z,1.33
2023-01-10T01:07:05.121Z,3.43
2023-01-10T01:08:06.467Z,1.87
2023-01-10T01:09:07.836Z,1.90
2023-01-10T01:10:27.489Z,1.87
2023-01-10T01:11:28.810Z,2.63
2023-01-10T01:12:30.151Z,2.83
2023-01-10T01:13:31.477Z,1.53
2023-01-10T01:14:32.787Z,1.90
2023-01-10T01:15:35.202Z,2.40
2023-01-10T01:16:36.543Z,2.37
2023-01-10T01:17:37.912Z,2.70
2023-01-10T01:18:39.291Z,3.87
2023-01-10T01:19:40.663Z,1.47
2023-01-10T01:20:42.206Z,1.37
2023-01-10T01:21:43.535Z,1.27
2023-01-10T01:22:44.873Z,1.00
2023-01-10T01:23:46.268Z,0.90
2023-01-10T01:24:47.565Z,0.97
2023-01-10T01:25:52.638Z,0.60
2023-01-10T01:26:53.987Z,1.07
2023-01-10T01:27:55.269Z,0.93
2023-01-10T01:28:56.596Z,1.87
2023-01-10T01:29:57.961Z,1.83
2023-01-10T01:30:59.385Z,1.57
2023-01-10T01:32:00.915Z,0.97
2023-01-10T01:33:02.355Z,0.70
2023-01-10T01:34:03.705Z,0.60
2023-01-10T01:35:05.738Z,0.80
2023-01-10T01:36:11.277Z,1.37
2023-01-10T01:37:12.561Z,1.00
2023-01-10T01:38:14.263Z,1.07
2023-01-10T01:39:15.563Z,0.73
2023-01-10T01:40:18.741Z,0.87
2023-01-10T01:41:38.598Z,0.70
2023-01-10T01:42:39.907Z,1.03
2023-01-10T01:44:01.346Z,0.73
2023-01-10T01:45:08.782Z,1.23
2023-01-10T01:46:10.185Z,0.47
2023-01-10T01:47:23.423Z,1.43
2023-01-10T01:48:28.779Z,1.97
2023-01-10T01:49:30.809Z,1.03
2023-01-10T01:50:34.501Z,0.80
2023-01-10T01:51:35.873Z,1.00
2023-01-10T01:52:37.658Z,0.50
2023-01-10T01:53:41.796Z,2.27
2023-01-10T01:54:43.723Z,1.17
2023-01-10T01:55:45.882Z,0.83
2023-01-10T01:57:13.390Z,1.03
2023-01-10T01:58:17.407Z,1.53
2023-01-10T01:59:22.953Z,0.60
2023-01-10T02:00:24.403Z,0.83
2023-01-10T02:01:26.509Z,0.73
2023-01-10T02:02:33.861Z,0.47
2023-01-10T02:03:35.829Z,1.70
2023-01-10T02:04:48.835Z,1.03
2023-01-10T02:05:50.507Z,0.67
2023-01-10T02:06:53.434Z,0.90
2023-01-10T02:07:56.287Z,1.20
2023-01-10T02:09:03.185Z,2.40
2023-01-10T02:10:06.738Z,0.97
2023-01-10T02:11:11.031Z,1.57
2023-01-10T02:12:14.371Z,1.03
2023-01-10T02:13:18.078Z,1.40
2023-01-10T02:14:20.433Z,1.63
2023-01-10T02:15:21.949Z,1.10
2023-01-10T02:16:23.329Z,1.70
2023-01-10T02:17:25.011Z,0.93
2023-01-10T02:18:26.459Z,1.37
2023-01-10T02:19:36.572Z,0.90
2023-01-10T02:20:45.752Z,2.30
2023-01-10T02:21:58.876Z,2.10
2023-01-10T02:23:15.447Z,0.87
2023-01-10T02:24:31.313Z,2.30
2023-01-10T02:25:51.159Z,1.57
2023-01-10T02:27:11.399Z,1.70
2023-01-10T02:28:31.634Z,2.07
2023-01-10T02:29:42.194Z,2.07
2023-01-10T02:30:55.788Z,1.70
2023-01-10T02:32:09.123Z,1.37
2023-01-10T02:33:13.520Z,1.90
2023-01-10T02:34:21.172Z,2.30
2023-01-10T02:35:32.474Z,1.37
2023-01-10T02:36:52.791Z,2.67
2023-01-10T02:38:05.584Z,2.40
2023-01-10T02:39:12.026Z,3.07
2023-01-10T02:40:13.465Z,1.93
2023-01-10T02:41:28.058Z,3.00
2023-01-10T02:42:31.685Z,2.77
2023-01-10T02:43:35.463Z,3.13
2023-01-10T02:44:42.390Z,2.37
2023-01-10T02:45:50.269Z,4.90
2023-01-10T02:46:51.820Z,3.23
2023-01-10T02:47:53.193Z,2.27
2023-01-10T02:48:55.455Z,1.70
2023-01-10T02:49:56.756Z,3.57
2023-01-10T02:51:08.311Z,2.83
2023-01-10T02:52:10.715Z,1.87
2023-01-10T02:53:16.440Z,1.70
2023-01-10T02:54:26.756Z,2.00
2023-01-10T02:55:33.835Z,4.67
2023-01-10T02:56:53.739Z,3.17
2023-01-10T02:58:14.056Z,2.47
2023-01-10T02:59:22.523Z,1.43
2023-01-10T03:00:44.140Z,3.97
2023-01-10T03:01:59.831Z,4.27
2023-01-10T03:03:04.215Z,2.10
2023-01-10T03:04:11.672Z,2.67
2023-01-10T03:05:22.426Z,2.40
2023-01-10T03:06:26.760Z,5.23
2023-01-10T03:07:33.592Z,3.73
2023-01-10T03:08:59.262Z,3.37
2023-01-10T03:10:03.796Z,1.67
2023-01-10T03:11:09.198Z,3.03
2023-01-10T03:12:14.074Z,6.03
2023-01-10T03:13:19.846Z,4.33
2023-01-10T03:14:25.565Z,4.83
2023-01-10T03:15:29.253Z,4.67
2023-01-10T03:16:32.191Z,3.07
2023-01-10T03:17:34.549Z,4.13
2023-01-10T03:18:45.093Z,4.33
2023-01-10T03:19:49.708Z,3.93
2023-01-10T03:20:52.142Z,4.87
2023-01-10T03:21:55.944Z,2.83
2023-01-10T03:22:57.514Z,2.20
2023-01-10T03:24:00.708Z,2.63
2023-01-10T03:25:04.054Z,4.00
2023-01-10T03:26:06.291Z,2.13
2023-01-10T03:27:09.777Z,4.37
2023-01-10T03:28:14.271Z,2.73
2023-01-10T03:29:18.839Z,6.07
2023-01-10T03:30:31.711Z,2.80
2023-01-10T03:31:39.231Z,3.93
2023-01-10T03:32:41.555Z,2.60
2023-01-10T03:33:43.022Z,5.70
2023-01-10T03:34:44.644Z,4.73
2023-01-10T03:35:49.112Z,4.30
2023-01-10T03:37:00.108Z,3.20
2023-01-10T03:38:07.862Z,4.33
2023-01-10T03:39:18.124Z,3.50
2023-01-10T03:40:23.190Z,4.13
2023-01-10T03:41:24.513Z,4.57
2023-01-10T03:42:55.044Z,3.80
2023-01-10T03:44:23.009Z,3.90
2023-01-10T03:45:29.894Z,2.40
2023-01-10T03:46:35.588Z,2.90
2023-01-10T03:47:41.596Z,4.47
2023-01-10T03:48:45.020Z,6.53
2023-01-10T03:49:48.776Z,4.30
2023-01-10T03:50:51.155Z,4.50
2023-01-10T03:51:53.774Z,6.03
2023-01-10T03:52:56.689Z,4.43
2023-01-10T03:53:59.884Z,5.20
2023-01-10T03:55:02.551Z,4.40
2023-01-10T03:56:04.045Z,3.30
2023-01-10T03:57:05.941Z,6.80
2023-01-10T03:58:07.420Z,5.03
2023-01-10T03:59:08.761Z,4.90
2023-01-10T04:00:10.345Z,4.43
2023-01-10T04:01:11.761Z,2.80
2023-01-10T04:02:13.218Z,4.90
2023-01-10T04:03:16.082Z,6.87
2023-01-10T04:04:17.576Z,2.83
2023-01-10T04:05:18.934Z,6.03
2023-01-10T04:06:20.324Z,4.73
2023-01-10T04:07:21.815Z,4.27
2023-01-10T04:08:23.185Z,2.57
2023-01-10T04:09:24.571Z,5.90
2023-01-10T04:10:27.085Z,4.47
2023-01-10T04:11:28.741Z,3.43
2023-01-10T04:12:30.073Z,2.60
2023-01-10T04:13:31.495Z,4.77
2023-01-10T04:14:32.836Z,7.27
2023-01-10T04:15:34.179Z,5.30
2023-01-10T04:16:35.561Z,3.83
2023-01-10T04:17:37.034Z,5.63
2023-01-10T04:18:38.397Z,4.60
2023-01-10T04:19:39.742Z,5.33
2023-01-10T04:20:41.111Z,5.00
2023-01-10T04:21:42.466Z,5.00
2023-01-10T04:22:44.955Z,7.00
2023-01-10T04:23:46.265Z,3.90
2023-01-10T04:24:48.565Z,6.10
2023-01-10T04:25:49.962Z,7.47
2023-01-10T04:26:51.336Z,4.40
2023-01-10T04:27:52.911Z,6.20
2023-01-10T04:28:54.331Z,2.77
2023-01-10T04:29:55.666Z,4.30
2023-01-10T04:30:57.115Z,3.57
2023-01-10T04:31:58.494Z,3.53
2023-01-10T04:32:59.886Z,4.13
2023-01-10T04:34:01.232Z,4.17
2023-01-10T04:35:02.566Z,6.97
2023-01-10T04:36:04.020Z,2.87
2023-01-10T04:37:05.412Z,5.93
2023-01-10T04:38:06.742Z,5.40
2023-01-10T04:39:08.379Z,6.43
2023-01-10T04:40:10.080Z,7.33
2023-01-10T04:41:11.540Z,5.03
2023-01-10T04:42:13.542Z,5.60
2023-01-10T04:43:14.952Z,5.10
2023-01-10T04:44:16.299Z,6.97
2023-01-10T04:45:20.182Z,3.90
2023-01-10T04:46:21.524Z,6.87
2023-01-10T04:47:22.941Z,4.43
2023-01-10T04:48:24.571Z,4.70
2023-01-10T04:49:25.956Z,3.50
2023-01-10T04:50:27.437Z,4.63
2023-01-10T04:51:29.014Z,7.20
2023-01-10T04:52:30.333Z,4.80
2023-01-10T04:53:31.702Z,5.50
2023-01-10T04:54:32.993Z,5.40
2023-01-10T04:55:34.568Z,3.50
2023-01-10T04:56:36.047Z,5.17
2023-01-10T04:57:37.372Z,6.93
2023-01-10T04:58:38.714Z,6.03
2023-01-10T04:59:40.040Z,6.50
2023-01-10T05:00:41.795Z,4.90
2023-01-10T05:01:43.336Z,5.67
2023-01-10T05:02:44.871Z,7.20
2023-01-10T05:03:52.700Z,8.43
2023-01-10T05:04:54.004Z,6.17
2023-01-10T05:05:58.396Z,3.90
2023-01-10T05:07:02.560Z,5.53
2023-01-10T05:08:04.013Z,5.77
2023-01-10T05:09:05.683Z,5.67
2023-01-10T05:10:08.301Z,6.53
2023-01-10T05:11:09.687Z,5.27
2023-01-10T05:12:11.059Z,3.50
2023-01-10T05:13:12.494Z,6.53
2023-01-10T05:14:13.905Z,5.97
2023-01-10T05:15:20.965Z,7.10
2023-01-10T05:16:22.423Z,6.03
2023-01-10T05:17:23.909Z,3.13
2023-01-10T05:18:25.765Z,5.53
2023-01-10T05:19:27.124Z,5.03
2023-01-10T05:20:28.492Z,8.27
2023-01-10T05:21:29.795Z,4.87
2023-01-10T05:22:31.211Z,4.33
2023-01-10T05:23:32.899Z,7.33
2023-01-10T05:24:34.215Z,6.77
2023-01-10T05:25:35.749Z,6.57
2023-01-10T05:26:37.089Z,5.93
2023-01-10T05:27:40.601Z,5.47
2023-01-10T05:28:42.214Z,6.43
2023-01-10T05:29:43.571Z,5.27
2023-01-10T05:30:44.952Z,7.77
2023-01-10T05:31:46.317Z,5.13
2023-01-10T05:32:47.680Z,5.57
2023-01-10T05:33:50.012Z,6.00
2023-01-10T05:34:51.337Z,6.83
2023-01-10T05:35:52.674Z,8.53
2023-01-10T05:36:53.966Z,6.03
2023-01-10T05:37:55.351Z,4.77
2023-01-10T05:38:56.974Z,6.13
2023-01-10T05:39:58.484Z,9.47
2023-01-10T05:41:00.232Z,9.27
2023-01-10T05:42:01.623Z,2.73
2023-01-10T05:43:03.030Z,7.90
2023-01-10T05:44:06.896Z,10.40
2023-01-10T05:45:08.719Z,7.33
2023-01-10T05:46:10.241Z,4.37
2023-01-10T05:47:11.574Z,7.27
2023-01-10T05:48:13.076Z,6.13
2023-01-10T05:49:14.431Z,8.20
2023-01-10T05:50:16.678Z,7.73
2023-01-10T05:51:18.775Z,7.17
2023-01-10T05:52:20.117Z,5.47
2023-01-10T05:53:21.564Z,9.00
2023-01-10T05:54:22.964Z,4.70
2023-01-10T05:55:24.298Z,9.87
2023-01-10T05:56:25.685Z,7.93
2023-01-10T05:57:27.120Z,8.90
2023-01-10T05:58:29.541Z,9.97
2023-01-10T05:59:30.951Z,14.07
2023-01-10T06:00:32.396Z,7.03
2023-01-10T06:01:33.831Z,8.77
2023-01-10T06:02:35.837Z,7.97
2023-01-10T06:03:37.332Z,7.80
2023-01-10T06:04:38.707Z,6.40
2023-01-10T06:05:39.998Z,8.43
2023-01-10T06:06:42.128Z,8.67
2023-01-10T06:07:43.437Z,8.10
2023-01-10T06:08:44.760Z,8.07
2023-01-10T06:09:46.712Z,11.07
2023-01-10T06:10:48.076Z,4.73
2023-01-10T06:11:49.386Z,9.03
2023-01-10T06:12:50.893Z,11.57
2023-01-10T06:13:55.744Z,8.83
2023-01-10T06:14:57.084Z,8.80
2023-01-10T06:15:58.547Z,10.13
2023-01-10T06:17:00.088Z,9.53
2023-01-10T06:18:01.556Z,9.80
2023-01-10T06:19:03.110Z,9.33
2023-01-10T06:20:04.866Z,13.80
2023-01-10T06:21:06.188Z,9.53
2023-01-10T06:22:07.572Z,13.23
2023-01-10T06:23:15.178Z,10.10
2023-01-10T06:24:16.775Z,10.33
2023-01-10T06:25:18.248Z,10.70
2023-01-10T06:26:19.627Z,12.77
2023-01-10T06:27:23.693Z,11.53
2023-01-10T06:28:25.300Z,8.87
2023-01-10T06:29:27.103Z,13.13
2023-01-10T06:30:28.821Z,11.67
2023-01-10T06:31:30.290Z,14.30
2023-01-10T06:32:31.604Z,14.07
2023-01-10T06:33:32.995Z,14.73
2023-01-10T06:34:34.427Z,13.53
2023-01-10T06:35:36.430Z,10.43
2023-01-10T06:36:41.122Z,10.97
2023-01-10T06:37:42.458Z,11.63
2023-01-10T06:38:43.899Z,12.80
2023-01-10T06:39:46.421Z,10.37
2023-01-10T06:40:50.228Z,12.77
2023-01-10T06:41:51.638Z,14.07
2023-01-10T06:42:53.069Z,12.93
2023-01-10T06:43:54.394Z,12.07
2023-01-10T06:44:55.978Z,10.83
2023-01-10T06:46:01.928Z,12.63
2023-01-10T06:47:03.343Z,12.07
2023-01-10T06:48:04.935Z,13.77
2023-01-10T06:49:06.345Z,10.50
2023-01-10T06:50:08.068Z,11.60
2023-01-10T06:51:09.584Z,14.30
2023-01-10T06:52:11.232Z,11.37
2023-01-10T06:53:12.627Z,11.53
2023-01-10T06:54:14.144Z,11.10
2023-01-10T06:55:15.614Z,12.70
2023-01-10T06:56:27.495Z,14.37
2023-01-10T06:57:36.519Z,12.87
2023-01-10T06:58:51.002Z,13.67
2023-01-10T06:59:52.370Z,16.43
2023-01-10T07:00:53.914Z,12.73
2023-01-10T07:01:55.400Z,14.83
2023-01-10T07:03:00.741Z,11.60
2023-01-10T07:04:02.414Z,12.83
2023-01-10T07:05:03.909Z,14.17
2023-01-10T07:06:12.885Z,11.77
2023-01-10T07:07:18.415Z,11.77
2023-01-10T07:08:22.266Z,12.50
2023-01-10T07:09:23.648Z,10.10
2023-01-10T07:10:25.045Z,9.43
2023-01-10T07:11:26.402Z,12.63
2023-01-10T07:12:30.833Z,11.37
2023-01-10T07:13:32.195Z,13.73
2023-01-10T07:14:34.135Z,10.17
2023-01-10T07:15:35.864Z,9.50
2023-01-10T07:16:42.726Z,11.23
2023-01-10T07:17:44.100Z,13.53
2023-01-10T07:18:45.536Z,17.70
2023-01-10T07:19:47.020Z,12.00
2023-01-10T07:20:48.382Z,12.57
2023-01-10T07:21:52.802Z,13.27
2023-01-10T07:22:54.995Z,13.90
2023-01-10T07:24:01.619Z,13.17
2023-01-10T07:25:04.703Z,9.90
2023-01-10T07:26:09.816Z,11.53
2023-01-10T07:27:11.145Z,9.90
2023-01-10T07:28:12.460Z,10.90
2023-01-10T07:29:13.871Z,11.80
2023-01-10T07:30:15.337Z,12.00
2023-01-10T07:31:20.429Z,9.10
2023-01-10T07:32:21.789Z,12.40
2023-01-10T07:33:23.116Z,11.17
2023-01-10T07:34:24.527Z,14.77
2023-01-10T07:35:26.122Z,13.50
2023-01-10T07:36:27.574Z,10.93
2023-01-10T07:37:28.903Z,11.10
2023-01-10T07:38:30.228Z,10.80
2023-01-10T07:39:31.540Z,12.60
2023-01-10T07:40:32.841Z,10.67
2023-01-10T07:41:34.394Z,12.37
2023-01-10T07:42:36.501Z,9.73
2023-01-10T07:43:37.848Z,9.03
2023-01-10T07:44:39.587Z,10.67
2023-01-10T07:45:42.441Z,13.23
2023-01-10T07:46:47.452Z,10.63
2023-01-10T07:47:49.081Z,11.40
2023-01-10T07:48:50.497Z,12.80
2023-01-10T07:49:51.793Z,11.27
2023-01-10T07:51:00.217Z,16.13
2023-01-10T07:52:01.644Z,14.90
2023-01-10T07:53:04.537Z,10.37
2023-01-10T07:54:06.203Z,16.47
2023-01-10T07:55:07.795Z,8.00
2023-01-10T07:56:09.215Z,16.93
2023-01-10T07:57:10.618Z,10.30
2023-01-10T07:58:11.949Z,12.37
2023-01-10T07:59:13.707Z,8.83
2023-01-10T08:00:17.907Z,15.60
2023-01-10T08:01:20.235Z,9.27
2023-01-10T08:02:21.856Z,9.57
2023-01-10T08:03:24.703Z,11.03
2023-01-10T08:04:27.063Z,9.80
2023-01-10T08:05:28.568Z,12.90
2023-01-10T08:06:29.974Z,13.23
2023-01-10T08:07:31.851Z,12.43
2023-01-10T08:08:33.865Z,10.90
2023-01-10T08:09:35.236Z,11.60
2023-01-10T08:10:37.492Z,11.03
2023-01-10T08:11:40.748Z,10.70
2023-01-10T08:12:43.035Z,13.67
2023-01-10T08:13:44.376Z,10.60
2023-01-10T08:14:45.852Z,12.47
2023-01-10T08:15:50.148Z,12.87
2023-01-10T08:16:51.644Z,11.00
2023-01-10T08:17:53.237Z,13.70
2023-01-10T08:18:54.672Z,9.57
2023-01-10T08:19:56.017Z,13.57
2023-01-10T08:20:58.052Z,11.57
2023-01-10T08:22:00.609Z,10.97
2023-01-10T08:23:01.952Z,13.00
2023-01-10T08:24:03.460Z,9.97
2023-01-10T08:25:05.119Z,13.43
2023-01-10T08:26:06.846Z,12.23
2023-01-10T08:27:08.164Z,10.13
2023-01-10T08:28:09.908Z,17.40
2023-01-10T08:29:11.654Z,11.13
2023-01-10T08:30:13.344Z,12.90
2023-01-10T08:31:14.953Z,11.03
2023-01-10T08:32:18.873Z,8.50
2023-01-10T08:33:20.192Z,11.70
2023-01-10T08:34:21.593Z,12.67
2023-01-10T08:35:22.897Z,12.07
2023-01-10T08:36:24.280Z,12.50
2023-01-10T08:37:25.644Z,10.63
2023-01-10T08:38:27.067Z,11.83
2023-01-10T08:39:30.396Z,16.17
2023-01-10T08:40:31.792Z,13.03
2023-01-10T08:41:33.150Z,15.37
2023-01-10T08:42:35.149Z,11.97
2023-01-10T08:43:36.535Z,13.90
2023-01-10T08:44:38.077Z,9.73
2023-01-10T08:45:39.539Z,11.20
2023-01-10T08:46:41.087Z,12.13
2023-01-10T08:47:42.412Z,14.87
2023-01-10T08:48:43.831Z,10.97
2023-01-10T08:49:46.994Z,14.07
2023-01-10T08:50:48.403Z,9.27
2023-01-10T08:51:49.778Z,13.27
2023-01-10T08:52:51.481Z,11.77
2023-01-10T08:53:52.860Z,13.70
2023-01-10T08:54:54.244Z,11.80
2023-01-10T08:55:55.583Z,11.07
2023-01-10T08:56:56.909Z,8.97
2023-01-10T08:58:01.601Z,11.87
2023-01-10T08:59:03.060Z,12.47
2023-01-10T09:00:05.166Z,14.57
2023-01-10T09:01:07.624Z,10.40
2023-01-10T09:02:15.371Z,10.67
2023-01-10T09:03:16.981Z,13.87
2023-01-10T09:04:18.421Z,11.00
2023-01-10T09:05:27.544Z,11.83
2023-01-10T09:06:29.555Z,11.93
2023-01-10T09:07:30.896Z,12.63
2023-01-10T09:08:32.308Z,9.47
2023-01-10T09:09:33.659Z,15.17
2023-01-10T09:10:35.544Z,10.10
2023-01-10T09:11:36.970Z,8.60
2023-01-10T09:12:56.502Z,8.37
2023-01-10T09:13:57.855Z,12.20
2023-01-10T09:14:59.291Z,11.43
2023-01-10T09:16:01.899Z,7.40
2023-01-10T09:17:03.262Z,15.80
2023-01-10T09:18:07.393Z,12.67
2023-01-10T09:19:08.820Z,12.57
2023-01-10T09:20:10.521Z,15.93
2023-01-10T09:21:11.910Z,8.90
2023-01-10T09:22:13.406Z,15.27
2023-01-10T09:23:17.711Z,11.53
2023-01-10T09:24:19.982Z,10.10
2023-01-10T09:25:21.368Z,12.30
2023-01-10T09:26:22.833Z,13.37
2023-01-10T09:27:24.282Z,12.13
2023-01-10T09:28:28.025Z,11.83
2023-01-10T09:29:29.381Z,11.47
2023-01-10T09:30:30.923Z,17.50
2023-01-10T09:31:32.328Z,12.40
2023-01-10T09:32:33.876Z,13.07
2023-01-10T09:33:46.108Z,13.93
2023-01-10T09:34:48.681Z,12.97
2023-01-10T09:35:50.037Z,11.93
2023-01-10T09:36:52.917Z,17.17
2023-01-10T09:37:55.373Z,10.33
2023-01-10T09:38:56.743Z,15.40
2023-01-10T09:39:58.047Z,12.67
2023-01-10T09:40:59.471Z,11.13
2023-01-10T09:42:20.049Z,15.70
2023-01-10T09:43:21.357Z,13.40
2023-01-10T09:44:36.881Z,14.37
2023-01-10T09:45:41.016Z,11.13
2023-01-10T09:46:52.734Z,12.30
2023-01-10T09:48:08.824Z,14.23
2023-01-10T09:49:15.344Z,10.60
2023-01-10T09:50:22.866Z,11.30
2023-01-10T09:51:27.186Z,15.57
2023-01-10T09:52:31.163Z,14.57
2023-01-10T09:53:33.329Z,11.43
2023-01-10T09:54:42.082Z,13.77
2023-01-10T09:55:45.967Z,11.50
2023-01-10T09:56:47.709Z,12.83
2023-01-10T09:57:49.601Z,14.60
2023-01-10T09:58:51.111Z,14.97
2023-01-10T09:59:54.001Z,13.93
2023-01-10T10:00:59.619Z,12.23
2023-01-10T10:02:07.203Z,14.00
2023-01-10T10:03:21.552Z,11.70
2023-01-10T10:04:30.545Z,12.50
2023-01-10T10:05:31.931Z,13.00
2023-01-10T10:06:36.370Z,14.33
2023-01-10T10:07:38.004Z,11.83
2023-01-10T10:08:44.088Z,16.43
2023-01-10T10:09:45.471Z,12.97
2023-01-10T10:10:53.000Z,13.93
2023-01-10T10:12:14.186Z,15.70
2023-01-10T10:13:27.544Z,12.17
2023-01-10T10:14:44.742Z,11.90
2023-01-10T10:15:50.825Z,13.13
2023-01-10T10:17:03.196Z,13.43
2023-01-10T10:18:41.120Z,11.33
2023-01-10T10:22:07.617Z,13.30
2023-01-10T10:22:40.216Z,18.53
2023-01-10T10:24:21.747Z,20.90
2023-01-10T10:25:23.890Z,15.57
2023-01-10T10:27:37.192Z,15.40
2023-01-10T10:28:53.851Z,12.73
2023-01-10T10:30:13.864Z,11.17
2023-01-10T10:31:22.045Z,11.03
2023-01-10T10:32:46.559Z,12.67
2023-01-10T10:33:50.997Z,16.07
2023-01-10T10:35:01.173Z,11.17
2023-01-10T10:36:04.823Z,13.50
2023-01-10T10:37:11.974Z,13.30
2023-01-10T10:38:17.603Z,16.00
2023-01-10T10:39:24.644Z,11.93
2023-01-10T10:40:28.708Z,11.20
2023-01-10T10:41:42.831Z,17.57
2023-01-10T10:42:50.654Z,13.87
2023-01-10T10:43:53.816Z,15.27
2023-01-10T10:44:59.073Z,17.97
2023-01-10T10:46:02.051Z,15.10
2023-01-10T10:47:09.596Z,10.67
2023-01-10T10:48:17.493Z,14.83
2023-01-10T10:49:42.151Z,13.10
2023-01-10T10:50:55.831Z,12.33
2023-01-10T10:51:57.390Z,14.70
2023-01-10T10:53:00.336Z,10.63
2023-01-10T10:54:03.053Z,16.77
2023-01-10T10:55:05.820Z,11.67
2023-01-10T10:56:11.648Z,14.30
2023-01-10T10:57:13.237Z,15.17
2023-01-10T10:58:14.841Z,12.93
2023-01-10T10:59:19.647Z,14.87
2023-01-10T11:00:22.378Z,15.57
2023-01-10T11:01:26.362Z,16.50
2023-01-10T11:02:29.787Z,13.60
2023-01-10T11:03:31.099Z,11.83
2023-01-10T11:04:32.703Z,14.20
2023-01-10T11:05:38.957Z,13.83
2023-01-10T11:06:41.580Z,11.43
2023-01-10T11:07:43.069Z,14.73
2023-01-10T11:08:45.897Z,15.97
2023-01-10T11:10:08.377Z,15.50
2023-01-10T11:11:19.422Z,22.37
2023-01-10T11:12:23.184Z,14.47
2023-01-10T11:13:30.785Z,18.47
2023-01-10T11:14:46.096Z,11.23
2023-01-10T11:15:49.139Z,14.67
2023-01-10T11:16:50.629Z,16.40
2023-01-10T11:18:04.036Z,15.00
2023-01-10T11:19:11.420Z,15.60
2023-01-10T11:20:15.621Z,16.80
2023-01-10T11:21:19.614Z,14.73
2023-01-10T11:22:22.399Z,17.13
2023-01-10T11:23:36.796Z,15.23
2023-01-10T11:24:39.540Z,17.20
2023-01-10T11:25:46.762Z,15.53
2023-01-10T11:26:48.176Z,16.33
2023-01-10T11:27:54.421Z,15.40
2023-01-10T11:29:16.052Z,13.27
2023-01-10T11:30:24.665Z,18.37
2023-01-10T11:31:27.819Z,13.43
2023-01-10T11:32:34.475Z,17.23
2023-01-10T11:33:35.933Z,14.33
2023-01-10T11:34:37.772Z,16.23
2023-01-10T11:35:41.271Z,19.37
2023-01-10T11:36:52.896Z,18.00
2023-01-10T11:38:01.517Z,13.90
2023-01-10T11:39:04.192Z,13.33
2023-01-10T11:40:25.877Z,17.30
2023-01-10T11:41:31.661Z,14.30
2023-01-10T11:42:33.111Z,15.53
2023-01-10T11:43:36.345Z,15.77
2023-01-10T11:44:37.731Z,12.37
2023-01-10T11:45:40.484Z,16.53
2023-01-10T11:46:45.259Z,15.03
2023-01-10T11:47:46.605Z,15.20
2023-01-10T11:49:08.457Z,13.97
2023-01-10T11:50:10.613Z,14.97
2023-01-10T11:51:19.629Z,17.33
2023-01-10T11:52:21.000Z,13.10
2023-01-10T11:53:28.536Z,13.87
2023-01-10T11:54:30.275Z,15.23
2023-01-10T11:55:34.224Z,14.97
2023-01-10T11:56:36.478Z,14.60
2023-01-10T11:57:37.877Z,13.10
2023-01-10T11:58:40.348Z,15.17
2023-01-10T11:59:51.052Z,11.17
2023-01-10T12:00:52.401Z,14.23
2023-01-10T12:02:00.034Z,18.30
2023-01-10T12:03:01.858Z,18.90
2023-01-10T12:04:03.895Z,13.27
2023-01-10T12:05:09.014Z,13.83
2023-01-10T12:06:15.061Z,16.77
2023-01-10T12:07:19.047Z,15.93
2023-01-10T12:08:31.266Z,16.27
2023-01-10T12:09:34.161Z,14.73
2023-01-10T12:10:35.720Z,13.03
2023-01-10T12:11:37.032Z,16.97
2023-01-10T12:12:38.829Z,13.97
2023-01-10T12:13:47.633Z,13.07
2023-01-10T12:14:49.752Z,13.20
2023-01-10T12:15:51.090Z,16.70
2023-01-10T12:16:58.577Z,13.63
2023-01-10T12:18:01.241Z,13.93
2023-01-10T12:19:04.946Z,11.67
2023-01-10T12:20:07.073Z,14.10
2023-01-10T12:21:09.885Z,13.40
2023-01-10T12:22:12.147Z,14.63
2023-01-10T12:23:16.395Z,17.27
2023-01-10T12:24:23.751Z,10.70
2023-01-10T12:25:30.196Z,15.30
2023-01-10T12:26:32.940Z,17.57
2023-01-10T12:27:34.416Z,17.80
2023-01-10T12:28:36.404Z,15.73
2023-01-10T12:29:41.211Z,17.97
2023-01-10T12:30:44.456Z,18.63
2023-01-10T12:31:45.901Z,14.33
2023-01-10T12:32:52.802Z,14.77
2023-01-10T12:33:57.051Z,14.40
2023-01-10T12:35:03.128Z,13.07
2023-01-10T12:36:11.255Z,15.70
2023-01-10T12:37:15.626Z,15.10
2023-01-10T12:38:43.115Z,14.10
2023-01-10T12:39:46.782Z,12.53
2023-01-10T12:40:59.829Z,19.90
2023-01-10T12:42:26.071Z,15.00
2023-01-10T12:43:49.336Z,14.40
2023-01-10T12:44:53.364Z,15.23
2023-01-10T12:45:56.936Z,11.27
2023-01-10T12:47:13.126Z,14.90
2023-01-10T12:48:35.197Z,18.67
2023-01-10T12:49:42.524Z,15.43
2023-01-10T12:50:46.040Z,14.23
2023-01-10T12:51:49.476Z,16.33
2023-01-10T12:53:10.850Z,13.17
2023-01-10T12:54:18.791Z,9.13
2023-01-10T12:55:21.460Z,17.57
2023-01-10T12:56:22.959Z,15.00
2023-01-10T12:57:30.387Z,11.57
2023-01-10T12:58:38.968Z,16.97
2023-01-10T12:59:43.108Z,17.87
2023-01-10T13:00:48.594Z,14.97
2023-01-10T13:01:54.107Z,18.00
2023-01-10T13:02:57.077Z,11.97
2023-01-10T13:04:01.542Z,15.77
2023-01-10T13:05:03.636Z,10.63
2023-01-10T13:06:05.043Z,11.10
2023-01-10T13:07:06.494Z,16.13
2023-01-10T13:08:12.652Z,12.00
2023-01-10T13:09:18.862Z,11.83
2023-01-10T13:10:21.852Z,15.23
2023-01-10T13:11:24.909Z,16.20
2023-01-10T13:12:35.304Z,14.47
2023-01-10T13:13:39.789Z,9.50
2023-01-10T13:14:46.295Z,9.07
2023-01-10T13:16:07.897Z,10.07
2023-01-10T13:17:27.947Z,14.90
2023-01-10T13:18:30.741Z,16.00
2023-01-10T13:19:32.210Z,15.93
2023-01-10T13:20:38.160Z,11.17
2023-01-10T13:21:40.778Z,12.63
2023-01-10T13:22:43.220Z,14.87
2023-01-10T13:23:52.225Z,12.90
2023-01-10T13:24:57.968Z,10.63
2023-01-10T13:26:01.569Z,14.50
2023-01-10T13:27:03.585Z,18.10
2023-01-10T13:28:06.792Z,8.73
2023-01-10T13:29:11.325Z,12.07
2023-01-10T13:30:26.426Z,9.50
2023-01-10T13:31:32.777Z,14.40
2023-01-10T13:32:35.359Z,15.80
2023-01-10T13:33:55.189Z,12.93
2023-01-10T13:35:09.525Z,11.40
2023-01-10T13:36:16.431Z,15.93
2023-01-10T13:37:36.247Z,11.63
2023-01-10T13:38:55.345Z,14.37
2023-01-10T13:39:58.179Z,15.53
2023-01-10T13:41:01.403Z,11.60
2023-01-10T13:42:21.333Z,10.13
2023-01-10T13:43:37.661Z,10.57
2023-01-10T13:44:57.565Z,10.43
2023-01-10T13:46:17.221Z,9.03
2023-01-10T13:47:37.151Z,12.57
2023-01-10T13:48:38.523Z,9.87
2023-01-10T13:49:41.610Z,14.23
2023-01-10T13:50:46.872Z,8.30
2023-01-10T13:52:07.044Z,12.03
2023-01-10T13:53:12.942Z,11.30
2023-01-10T13:54:17.310Z,8.87
2023-01-10T13:55:37.624Z,10.27
2023-01-10T13:56:42.711Z,9.30
2023-01-10T13:57:54.969Z,9.70
2023-01-10T13:59:14.722Z,14.03
2023-01-10T14:00:42.078Z,16.63
2023-01-10T14:02:03.006Z,9.23
2023-01-10T14:03:04.391Z,10.70
2023-01-10T14:04:06.754Z,12.73
2023-01-10T14:05:17.599Z,12.77
2023-01-10T14:06:28.276Z,10.83
2023-01-10T14:07:31.805Z,11.93
2023-01-10T14:08:33.212Z,10.40
2023-01-10T14:09:44.595Z,8.83